Time;durP1;ratioP1;P1;durP2;ratioP2;P2;SDS_P1;SDS_P2;PMS_P1;PMS_P2;Temp;Humidity;BMP_temperature;BMP_pressure;BME280_temperature;BME280_humidity;BME280_pressure;Samples;Min_cycle;Max_cycle;Signal;HPM_P1;HPM_P2
2022/12/06 00:02:06;;;;;;;46.85;24.40;;;;;;;1.01;100.00;152798.75;5029998;28;20037;-76
2022/12/06 00:04:32;;;;;;;39.72;21.67;;;;;;;1.02;100.00;152800.03;5027720;28;20130;-76
2022/12/06 00:06:57;;;;;;;41.40;23.40;;;;;;;1.01;100.00;152797.50;5049352;28;20048;-76
2022/12/06 00:09:26;;;;;;;38.97;22.60;;;;;;;1.07;100.00;152812.78;5043839;28;20063;-76
2022/12/06 00:11:53;;;;;;;41.00;23.45;;;;;;;1.08;100.00;152816.63;5038202;28;20120;-76
2022/12/06 00:14:20;;;;;;;40.60;24.00;;;;;;;1.12;100.00;152825.53;5052270;28;20416;-76
2022/12/06 00:16:46;;;;;;;40.67;24.38;;;;;;;1.20;100.00;152845.91;5031868;28;20036;-76
2022/12/06 00:19:14;;;;;;;41.42;22.98;;;;;;;1.32;100.00;152876.53;5028190;28;20513;-76
2022/12/06 00:21:40;;;;;;;40.72;23.50;;;;;;;1.30;100.00;152871.44;5047731;28;20024;-76
2022/12/06 00:24:10;;;;;;;42.70;23.52;;;;;;;1.26;100.00;152859.94;5033064;28;20040;-75
2022/12/06 00:26:38;;;;;;;38.58;23.67;;;;;;;1.22;100.00;152851.00;5034353;28;20042;-76
2022/12/06 00:29:04;;;;;;;38.47;21.75;;;;;;;1.22;100.00;152851.00;5041164;28;20041;-76
2022/12/06 00:31:31;;;;;;;39.30;22.63;;;;;;;1.21;100.00;152848.50;5021031;28;20048;-76
2022/12/06 00:33:57;;;;;;;42.47;23.85;;;;;;;1.26;100.00;152861.25;5017873;28;20064;-75
2022/12/06 00:36:26;;;;;;;40.95;22.38;;;;;;;1.31;100.00;152872.72;5030793;28;21304;-76
2022/12/06 00:38:53;;;;;;;39.30;22.17;;;;;;;1.29;100.00;152867.63;5051854;28;20066;-76
2022/12/06 00:41:23;;;;;;;38.25;21.80;;;;;;;1.28;100.00;152866.34;5020911;28;20444;-75
2022/12/06 00:43:49;;;;;;;36.75;22.58;;;;;;;1.28;100.00;152866.34;5034017;28;20036;-76
2022/12/06 00:46:18;;;;;;;35.15;21.92;;;;;;;1.29;100.00;152867.63;5021219;28;20538;-76
2022/12/06 00:48:44;;;;;;;40.25;22.05;;;;;;;1.35;100.00;152882.91;5045854;28;20040;-76
2022/12/06 00:51:11;;;;;;;38.60;21.20;;;;;;;1.29;100.00;152867.63;5044583;28;20033;-76
2022/12/06 00:53:36;;;;;;;34.45;22.40;;;;;;;1.33;100.00;152877.81;5022843;28;20045;-76
2022/12/06 00:56:02;;;;;;;35.42;20.15;;;;;;;1.36;100.00;152886.72;5028166;28;20090;-75
2022/12/06 00:58:28;;;;;;;36.17;20.63;;;;;;;1.40;100.00;152894.41;5033335;28;20130;-76
2022/12/06 01:00:54;;;;;;;34.05;19.45;;;;;;;1.42;100.00;152900.75;5016834;28;20067;-76
2022/12/06 01:03:19;;;;;;;34.72;19.63;;;;;;;1.45;100.00;152908.41;5010406;28;20033;-76
2022/12/06 01:05:47;;;;;;;32.95;19.67;;;;;;;1.49;100.00;152918.59;5031656;28;20031;-76
2022/12/06 01:08:15;;;;;;;35.08;19.20;;;;;;;1.50;100.00;152919.88;5052317;28;20553;-76
2022/12/06 01:10:40;;;;;;;31.55;19.02;;;;;;;1.52;100.00;152924.97;5038991;28;20035;-76
2022/12/06 01:13:06;;;;;;;35.83;21.20;;;;;;;1.53;100.00;152927.53;5053278;28;20048;-76
2022/12/06 01:15:35;;;;;;;39.20;21.98;;;;;;;1.50;100.00;152921.13;5016556;28;20102;-76
2022/12/06 01:18:01;;;;;;;37.70;20.17;;;;;;;1.52;100.00;152924.97;5030073;28;20660;-76
2022/12/06 01:20:27;;;;;;;37.00;19.63;;;;;;;1.50;100.00;152919.88;5037653;28;20033;-76
2022/12/06 01:22:55;;;;;;;39.35;21.30;;;;;;;1.52;100.00;152926.22;5014573;28;20820;-76
2022/12/06 01:25:21;;;;;;;40.00;21.10;;;;;;;1.52;100.00;152924.97;5026554;28;20041;-76
2022/12/06 01:27:46;;;;;;;40.97;20.92;;;;;;;1.54;100.00;152931.38;5044759;28;20505;-76
2022/12/06 01:30:12;;;;;;;41.97;22.27;;;;;;;1.63;100.00;152953.03;5039906;28;20460;-76
2022/12/06 01:32:38;;;;;;;38.95;20.80;;;;;;;1.63;100.00;152953.03;5025888;28;20047;-76
2022/12/06 01:35:04;;;;;;;38.28;20.70;;;;;;;1.79;100.00;152992.56;5028752;28;20041;-76
2022/12/06 01:37:29;;;;;;;42.03;21.02;;;;;;;1.71;100.00;152973.44;5043220;28;20047;-76
2022/12/06 01:39:55;;;;;;;36.17;19.05;;;;;;;1.67;100.00;152963.22;5035402;28;20040;-76
2022/12/06 01:42:21;;;;;;;39.10;20.10;;;;;;;1.68;100.00;152965.78;5044622;28;20033;-75
2022/12/06 01:44:54;;;;;;;37.67;19.85;;;;;;;1.67;100.00;152961.94;5049708;28;20094;-76
2022/12/06 01:47:32;;;;;;;34.35;19.17;;;;;;;1.69;100.00;152967.03;5027624;28;20390;-76
2022/12/06 01:50:13;;;;;;;49.53;21.63;;;;;;;1.65;100.00;152958.13;5029240;28;20357;-76
2022/12/06 01:53:07;;;;;;;33.90;19.45;;;;;;;1.85;100.00;153006.59;5040973;28;20053;-76
2022/12/06 01:55:37;;;;;;;34.90;20.10;;;;;;;1.82;100.00;152998.94;5052997;28;20048;-76
2022/12/06 01:58:16;;;;;;;40.38;20.00;;;;;;;1.74;100.00;152979.81;5017400;28;20607;-76
2022/12/06 02:00:42;;;;;;;36.35;19.65;;;;;;;1.74;100.00;152981.06;5034086;28;20039;-76
2022/12/06 02:03:15;;;;;;;44.53;21.38;;;;;;;1.70;100.00;152969.63;5019940;28;20113;-76
2022/12/06 02:05:41;;;;;;;35.72;18.77;;;;;;;1.68;100.00;152964.53;5012920;28;20119;-77
2022/12/06 02:08:08;;;;;;;58.83;22.95;;;;;;;1.70;100.00;152970.88;5040819;28;20049;-76
2022/12/06 02:10:36;;;;;;;38.75;20.02;;;;;;;1.68;100.00;152964.53;5016587;28;20037;-76
2022/12/06 02:13:02;;;;;;;47.28;20.33;;;;;;;1.66;100.00;152960.69;5036666;28;20053;-76
2022/12/06 02:15:37;;;;;;;34.95;19.58;;;;;;;1.68;100.00;152964.53;5056518;28;20129;-76
2022/12/06 02:18:18;;;;;;;35.55;20.42;;;;;;;1.69;100.00;152967.03;5028782;28;20045;-76
2022/12/06 02:20:49;;;;;;;37.33;20.33;;;;;;;1.70;100.00;152970.88;5014953;28;20033;-76
2022/12/06 02:23:47;;;;;;;40.65;19.90;;;;;;;1.68;100.00;152965.78;5037263;28;20032;-76
2022/12/06 02:26:15;;;;;;;36.13;19.83;;;;;;;1.77;100.00;152987.44;5032056;28;20838;-76
2022/12/06 02:28:53;;;;;;;35.95;19.05;;;;;;;1.77;100.00;152987.44;5031626;28;20083;-76
2022/12/06 02:31:37;;;;;;;35.38;20.60;;;;;;;1.71;100.00;152973.44;5014383;28;20065;-76
2022/12/06 02:34:12;;;;;;;42.95;22.27;;;;;;;1.72;100.00;152974.72;5011777;28;20047;-76
2022/12/06 02:36:51;;;;;;;38.85;21.33;;;;;;;1.72;100.00;152974.72;5014533;28;20033;-76
2022/12/06 02:39:41;;;;;;;45.42;22.55;;;;;;;1.73;100.00;152978.56;5046924;28;20094;-76
2022/12/06 02:42:12;;;;;;;33.47;19.63;;;;;;;1.72;100.00;152975.97;5046353;28;20137;-74
2022/12/06 02:44:50;;;;;;;36.08;19.25;;;;;;;1.73;100.00;152977.25;5041722;28;20040;-76
2022/12/06 02:47:20;;;;;;;49.78;23.05;;;;;;;1.74;100.00;152981.06;5031763;28;20041;-76
2022/12/06 02:49:49;;;;;;;43.42;21.13;;;;;;;1.77;100.00;152986.16;5051083;28;20401;-76
2022/12/06 02:52:18;;;;;;;34.40;20.40;;;;;;;1.82;100.00;153000.19;5044287;28;20065;-76
2022/12/06 02:54:46;;;;;;;37.90;19.58;;;;;;;1.84;100.00;153004.03;5037385;28;20051;-76
2022/12/06 02:57:12;;;;;;;32.13;17.42;;;;;;;1.82;100.00;153000.19;5036365;28;20061;-76
2022/12/06 02:59:38;;;;;;;34.92;18.70;;;;;;;1.86;100.00;153010.38;5055720;28;20135;-76
2022/12/06 03:02:09;;;;;;;35.47;17.65;;;;;;;1.89;100.00;153016.78;5056855;28;20110;-76
2022/12/06 03:05:04;;;;;;;30.73;17.65;;;;;;;1.89;100.00;153018.06;5020620;28;20032;-76
2022/12/06 03:07:43;;;;;;;32.70;17.67;;;;;;;1.90;100.00;153020.63;5040390;28;20047;-76
2022/12/06 03:10:36;;;;;;;29.30;15.32;;;;;;;1.96;100.00;153034.66;5034750;28;20048;-76
2022/12/06 03:13:29;;;;;;;35.95;16.90;;;;;;;1.97;100.00;153037.19;5017093;28;20049;-76
2022/12/06 03:15:59;;;;;;;24.67;13.63;;;;;;;1.99;100.00;153041.03;5024653;28;20048;-76
2022/12/06 03:18:40;;;;;;;30.95;15.50;;;;;;;2.03;100.00;153051.22;5024826;28;20075;-76
2022/12/06 03:21:14;;;;;;;27.35;16.08;;;;;;;2.04;100.00;153055.06;5029014;28;20067;-75
2022/12/06 03:23:44;;;;;;;24.13;14.02;;;;;;;2.04;100.00;153055.06;5015067;28;20036;-76
2022/12/06 03:26:14;;;;;;;21.17;12.55;;;;;;;2.13;100.00;153076.75;5031674;28;20042;-75
2022/12/06 03:28:42;;;;;;;20.80;13.00;;;;;;;2.20;100.00;153093.31;5017799;28;20036;-76
2022/12/06 03:31:11;;;;;;;18.40;11.52;;;;;;;2.20;100.00;153094.56;5036732;28;20040;-76
2022/12/06 03:33:45;;;;;;;30.85;13.18;;;;;;;2.19;100.00;153090.78;5031374;28;20180;-76
2022/12/06 03:36:13;;;;;;;19.15;11.13;;;;;;;2.27;100.00;153112.44;5043539;28;20033;-76
2022/12/06 03:38:49;;;;;;;22.33;12.13;;;;;;;2.26;100.00;153109.91;5024894;28;20047;-77
2022/12/06 03:41:16;;;;;;;23.17;11.32;;;;;;;2.27;100.00;153112.44;5023069;28;20100;-76
2022/12/06 03:43:42;;;;;;;18.27;11.30;;;;;;;2.28;100.00;153113.72;5024892;28;20051;-76
2022/12/06 03:46:13;;;;;;;22.35;11.52;;;;;;;2.25;100.00;153106.09;5032350;28;20044;-76
2022/12/06 03:48:45;;;;;;;22.05;12.10;;;;;;;2.25;100.00;153107.34;5049387;28;20158;-76
2022/12/06 03:51:19;;;;;;;18.10;9.40;;;;;;;2.29;100.00;153117.53;5048249;28;20104;-77
2022/12/06 03:53:47;;;;;;;16.90;9.80;;;;;;;2.32;100.00;153125.22;5009138;28;20569;-77
2022/12/06 03:56:13;;;;;;;19.25;10.02;;;;;;;2.29;100.00;153116.28;5008452;28;20036;-77
2022/12/06 03:58:39;;;;;;;15.55;9.10;;;;;;;2.40;100.00;153143.09;5020232;28;20513;-77
2022/12/06 04:01:04;;;;;;;17.35;9.25;;;;;;;2.38;100.00;153139.25;5049501;28;20037;-76
2022/12/06 04:03:30;;;;;;;17.75;9.30;;;;;;;2.39;100.00;153140.50;5048335;28;20048;-78
2022/12/06 04:05:55;;;;;;;13.90;8.88;;;;;;;2.42;100.00;153148.19;5034787;28;20554;-77
2022/12/06 04:08:21;;;;;;;14.05;8.73;;;;;;;2.46;100.00;153158.38;5040903;28;20041;-76
2022/12/06 04:10:47;;;;;;;16.77;8.30;;;;;;;2.48;100.00;153163.47;5040016;28;20505;-76
2022/12/06 04:13:12;;;;;;;14.35;9.15;;;;;;;2.48;100.00;153163.47;5057068;28;20033;-77
2022/12/06 04:15:38;;;;;;;12.82;7.70;;;;;;;2.46;100.00;153158.38;5040185;28;20421;-78
2022/12/06 04:18:12;;;;;;;14.57;8.15;;;;;;;2.42;100.00;153148.19;5052589;28;20045;-78
2022/12/06 04:23:36;;;;;;;11.90;8.35;;;;;;;2.45;100.00;153155.81;5070053;28;20074;-77
2022/12/06 04:26:03;;;;;;;14.02;7.85;;;;;;;2.42;100.00;153149.44;5018942;28;20544;-76
2022/12/06 04:39:28;;;;;;;12.50;7.68;;;;;;;2.48;100.00;153163.47;5056913;28;20128;-77
2022/12/06 04:44:38;;;;;;;13.32;7.57;;;;;;;2.48;100.00;153163.47;5057397;28;20771;-77
2022/12/06 04:47:04;;;;;;;10.43;6.97;;;;;;;2.46;100.00;153158.38;5031559;28;20094;-77
2022/12/06 04:49:30;;;;;;;10.32;6.50;;;;;;;2.49;100.00;153166.06;5051211;28;20035;-76
2022/12/06 04:51:56;;;;;;;11.30;7.25;;;;;;;2.47;100.00;153162.22;5044443;28;20036;-77
2022/12/06 04:54:22;;;;;;;10.40;7.20;;;;;;;2.48;100.00;153164.75;5026952;28;20505;-76
2022/12/06 04:56:48;;;;;;;11.65;7.47;;;;;;;2.47;100.00;153162.22;5029697;28;20080;-78
2022/12/06 04:59:13;;;;;;;14.52;8.48;;;;;;;2.49;100.00;153166.06;5028814;28;20064;-77
2022/12/06 05:01:39;;;;;;;13.32;7.90;;;;;;;2.55;100.00;153180.09;5030856;28;20040;-77
2022/12/06 05:04:05;;;;;;;9.70;6.97;;;;;;;2.53;100.00;153177.53;5038020;28;20494;-76
2022/12/06 05:06:30;;;;;;;13.63;8.88;;;;;;;2.53;100.00;153177.53;5019189;28;20094;-77
2022/12/06 05:08:56;;;;;;;14.95;7.90;;;;;;;2.59;100.00;153191.56;5041354;28;20044;-76
2022/12/06 05:11:21;;;;;;;17.10;8.63;;;;;;;2.62;100.00;153197.91;5048185;28;20110;-77
2022/12/06 05:13:47;;;;;;;14.32;8.70;;;;;;;2.61;100.00;153195.38;5035573;28;20060;-78
2022/12/06 05:16:13;;;;;;;14.95;9.07;;;;;;;2.58;100.00;153187.72;5055492;28;20048;-77
2022/12/06 05:18:39;;;;;;;10.23;8.15;;;;;;;2.62;100.00;153199.22;5019412;28;20516;-77
2022/12/06 05:21:12;;;;;;;15.90;9.05;;;;;;;2.65;100.00;153205.59;5041603;28;20044;-76
2022/12/06 05:23:38;;;;;;;;;;;;;;;2.64;100.00;153203.06;5050696;28;20077;-77
2022/12/06 05:26:07;;;;;;;18.02;8.10;;;;;;;2.65;100.00;153205.59;5031875;28;19959;-77
2022/12/06 05:28:33;;;;;;;14.13;8.68;;;;;;;2.60;100.00;153192.81;5019035;28;20543;-76
2022/12/06 05:30:59;;;;;;;15.32;9.23;;;;;;;2.61;100.00;153196.66;5051519;28;20033;-76
2022/12/06 05:33:25;;;;;;;17.13;9.38;;;;;;;2.62;100.00;153199.22;5053135;28;20033;-76
2022/12/06 05:35:51;;;;;;;14.75;9.02;;;;;;;2.68;100.00;153213.25;5031468;28;20075;-76
2022/12/06 05:38:18;;;;;;;14.40;8.13;;;;;;;2.65;100.00;153205.59;5025099;28;20041;-76
2022/12/06 05:40:44;;;;;;;12.60;8.38;;;;;;;2.62;100.00;153197.91;5028860;28;20040;-77
2022/12/06 05:43:09;;;;;;;18.33;8.68;;;;;;;2.58;100.00;153187.72;5026354;28;20036;-77
2022/12/06 05:45:36;;;;;;;17.50;9.52;;;;;;;2.60;100.00;153194.13;5043388;28;20036;-76
2022/12/06 05:48:02;;;;;;;16.08;9.00;;;;;;;2.63;100.00;153200.50;5045252;28;20123;-77
2022/12/06 05:50:28;;;;;;;18.13;9.32;;;;;;;2.63;100.00;153200.50;5040310;28;20132;-76
2022/12/06 05:52:55;;;;;;;17.85;9.60;;;;;;;2.56;100.00;153183.88;5039220;28;20102;-77
2022/12/06 05:55:20;;;;;;;14.07;8.52;;;;;;;2.60;100.00;153192.81;5053687;28;20033;-76
2022/12/06 05:57:46;;;;;;;19.27;9.90;;;;;;;2.60;100.00;153192.81;5052205;28;20608;-77
2022/12/06 06:00:14;;;;;;;18.70;9.82;;;;;;;2.62;100.00;153199.22;5054042;28;20055;-77
2022/12/06 06:02:40;;;;;;;18.30;9.45;;;;;;;2.62;100.00;153199.22;5045584;28;20036;-76
2022/12/06 06:05:06;;;;;;;16.38;9.95;;;;;;;2.65;100.00;153206.84;5057896;28;20114;-77
2022/12/06 06:07:31;;;;;;;17.52;9.73;;;;;;;2.69;100.00;153215.78;5030745;28;20502;-77
2022/12/06 06:09:57;;;;;;;17.48;10.60;;;;;;;2.78;100.00;153237.50;5054615;28;20031;-77
2022/12/06 06:12:23;;;;;;;19.52;9.85;;;;;;;2.71;100.00;153222.19;5036115;28;20055;-76
2022/12/06 06:14:48;;;;;;;13.68;9.13;;;;;;;2.71;100.00;153222.19;5048355;28;20032;-77
2022/12/06 06:17:14;;;;;;;18.92;9.40;;;;;;;2.74;100.00;153228.56;5031357;28;20037;-76
2022/12/06 06:19:40;;;;;;;16.60;9.77;;;;;;;2.72;100.00;153223.47;5042499;28;20537;-76
2022/12/06 06:22:05;;;;;;;17.75;9.77;;;;;;;2.64;100.00;153203.06;5042451;28;20051;-77
2022/12/06 06:24:39;;;;;;;15.93;9.57;;;;;;;2.65;100.00;153205.59;5034838;28;20033;-76
2022/12/06 06:27:05;;;;;;;15.43;9.30;;;;;;;2.68;100.00;153214.53;5062131;28;20074;-76
2022/12/06 06:29:31;;;;;;;16.33;9.32;;;;;;;2.69;100.00;153215.78;5055774;28;20040;-77
2022/12/06 06:31:57;;;;;;;15.00;8.77;;;;;;;2.71;100.00;153222.19;5057563;28;20920;-77
2022/12/06 06:34:23;;;;;;;14.07;8.18;;;;;;;2.71;100.00;153220.88;5029757;28;20124;-76
2022/12/06 06:36:49;;;;;;;12.02;8.55;;;;;;;2.71;100.00;153220.88;5042030;28;20039;-76
2022/12/06 06:39:14;;;;;;;14.73;8.32;;;;;;;2.65;100.00;153206.84;5061334;28;20036;-76
2022/12/06 06:41:40;;;;;;;12.05;7.78;;;;;;;2.66;100.00;153209.44;5059403;28;20121;-77
2022/12/06 06:44:05;;;;;;;17.30;8.23;;;;;;;2.63;100.00;153200.50;5050554;28;20033;-77
2022/12/06 06:46:31;;;;;;;14.82;8.27;;;;;;;2.70;100.00;153218.38;5059473;28;20053;-76
2022/12/06 06:48:57;;;;;;;10.35;6.15;;;;;;;2.70;100.00;153218.38;5033064;28;20040;-77
2022/12/06 06:51:22;;;;;;;8.70;6.05;;;;;;;2.75;100.00;153229.81;5070607;28;20037;-76
2022/12/06 06:53:48;;;;;;;13.52;7.53;;;;;;;2.72;100.00;153224.72;5049362;28;20607;-76
2022/12/06 06:56:14;;;;;;;14.82;7.13;;;;;;;2.72;100.00;153224.72;5032446;28;20032;-76
2022/12/06 06:58:40;;;;;;;13.65;6.85;;;;;;;2.68;100.00;153213.25;5038984;28;20036;-76
2022/12/06 07:01:07;;;;;;;11.13;6.43;;;;;;;2.69;100.00;153215.78;5063946;28;20520;-76
2022/12/06 07:03:33;;;;;;;12.43;8.30;;;;;;;2.72;100.00;153224.72;5029677;28;20456;-76
2022/12/06 07:06:03;;;;;;;11.95;7.72;;;;;;;2.67;100.00;153211.94;5039359;28;20037;-76
2022/12/06 07:08:30;;;;;;;14.20;8.57;;;;;;;2.73;100.00;153226.00;5051478;28;20097;-77
2022/12/06 07:10:56;;;;;;;9.95;6.65;;;;;;;2.71;100.00;153222.19;5058984;28;20039;-76
2022/12/06 07:13:23;;;;;;;13.73;7.80;;;;;;;2.67;100.00;153211.94;5042728;28;20040;-76
2022/12/06 07:15:50;;;;;;;13.60;7.63;;;;;;;2.67;100.00;153211.94;5059178;28;20071;-75
2022/12/06 07:18:18;;;;;;;14.05;7.38;;;;;;;2.66;100.00;153209.44;5050228;28;20120;-76
2022/12/06 07:20:45;;;;;;;11.68;7.45;;;;;;;2.68;100.00;153214.53;5042592;28;20124;-76
2022/12/06 07:23:11;;;;;;;11.48;7.55;;;;;;;2.63;100.00;153201.75;5054764;28;20428;-76
2022/12/06 07:25:36;;;;;;;10.52;7.60;;;;;;;2.64;100.00;153204.31;5048814;28;20036;-75
2022/12/06 07:28:03;;;;;;;13.30;7.40;;;;;;;2.66;100.00;153208.16;5044561;28;20044;-76
2022/12/06 07:30:28;;;;;;;9.82;7.07;;;;;;;2.67;100.00;153210.69;5038885;28;20087;-76
2022/12/06 07:32:54;;;;;;;10.02;7.55;;;;;;;2.63;100.00;153201.75;5034122;28;20036;-76
2022/12/06 07:35:20;;;;;;;11.65;7.85;;;;;;;2.66;100.00;153209.44;5037329;28;20485;-76
2022/12/06 07:37:46;;;;;;;10.55;7.97;;;;;;;2.69;100.00;153215.78;5052989;28;20024;-76
2022/12/06 07:40:13;;;;;;;13.65;8.70;;;;;;;2.66;100.00;153208.16;5054057;28;20417;-77
2022/12/06 07:45:24;;;;;;;13.23;8.63;;;;;;;2.64;100.00;153203.06;5033491;28;20144;-75
2022/12/06 07:47:49;;;;;;;12.20;8.80;;;;;;;2.68;100.00;153214.53;5031327;28;20033;-77
2022/12/06 07:50:18;;;;;;;13.50;8.88;;;;;;;2.66;100.00;153208.16;5033171;28;20060;-76
2022/12/06 07:52:46;;;;;;;13.40;8.38;;;;;;;2.67;100.00;153210.69;5054796;28;20123;-76
2022/12/06 07:55:12;;;;;;;12.50;8.63;;;;;;;2.64;100.00;153203.06;5029770;28;20040;-77
2022/12/06 07:57:38;;;;;;;11.60;8.68;;;;;;;2.61;100.00;153195.38;5041563;28;20037;-76
2022/12/06 08:00:07;;;;;;;19.25;9.90;;;;;;;2.63;100.00;153201.75;5037176;28;20060;-77
2022/12/06 08:02:38;;;;;;;16.58;9.63;;;;;;;2.63;100.00;153201.75;5034353;28;20037;-76
2022/12/06 08:05:04;;;;;;;16.17;8.77;;;;;;;2.60;100.00;153194.13;5029333;28;20037;-76
2022/12/06 08:07:30;;;;;;;15.10;9.32;;;;;;;2.63;100.00;153201.75;5027418;28;20043;-75
2022/12/06 08:09:56;;;;;;;12.23;9.48;;;;;;;2.63;100.00;153200.50;5027779;28;20028;-77
2022/12/06 08:12:22;;;;;;;15.65;9.40;;;;;;;2.62;100.00;153197.91;5037709;28;20038;-76
2022/12/06 08:14:48;;;;;;;13.63;9.85;;;;;;;2.61;100.00;153196.66;5039644;28;20032;-76
2022/12/06 08:17:14;;;;;;;14.77;9.63;;;;;;;2.67;100.00;153211.94;5033878;28;20064;-76
2022/12/06 08:19:40;;;;;;;14.32;9.98;;;;;;;2.67;100.00;153210.69;5033487;28;20132;-76
2022/12/06 08:22:06;;;;;;;15.75;10.38;;;;;;;2.64;100.00;153204.31;5024113;28;20505;-76
2022/12/06 08:24:32;;;;;;;24.30;10.45;;;;;;;2.63;100.00;153200.50;5032425;28;20039;-76
2022/12/06 08:26:58;;;;;;;18.88;10.27;;;;;;;2.71;100.00;153222.19;5056537;28;20043;-76
2022/12/06 08:29:24;;;;;;;17.02;10.82;;;;;;;2.69;100.00;153215.78;5021871;28;20513;-76
2022/12/06 08:31:50;;;;;;;15.90;10.57;;;;;;;2.68;100.00;153213.25;5065935;28;20037;-77
2022/12/06 08:34:16;;;;;;;13.88;9.90;;;;;;;2.65;100.00;153205.59;5028817;28;20028;-75
2022/12/06 08:36:42;;;;;;;17.30;10.05;;;;;;;2.64;100.00;153203.06;5061990;28;20085;-76
2022/12/06 08:39:10;;;;;;;18.50;10.25;;;;;;;2.64;100.00;153204.31;5018518;28;20045;-75
2022/12/06 08:41:54;;;;;;;20.95;11.20;;;;;;;2.67;100.00;153211.94;5042996;28;20032;-76
2022/12/06 08:44:21;;;;;;;17.52;9.65;;;;;;;2.71;100.00;153220.88;5056756;28;20037;-76
2022/12/06 08:46:47;;;;;;;15.57;10.48;;;;;;;2.75;100.00;153231.13;5062175;28;20115;-76
2022/12/06 08:49:15;;;;;;;15.68;9.77;;;;;;;2.80;100.00;153242.59;5027761;28;20029;-75
2022/12/06 08:51:42;;;;;;;14.68;10.15;;;;;;;2.82;100.00;153248.97;5036572;28;20848;-76
2022/12/06 08:54:11;;;;;;;19.02;10.45;;;;;;;2.77;100.00;153236.25;5038935;28;20052;-76
2022/12/06 08:56:37;;;;;;;15.75;10.20;;;;;;;2.78;100.00;153237.50;5046661;28;20035;-76
2022/12/06 08:59:03;;;;;;;13.57;10.25;;;;;;;2.73;100.00;153227.31;5061477;28;20036;-76
2022/12/06 09:01:31;;;;;;;13.65;10.40;;;;;;;2.67;100.00;153211.94;5049232;28;20055;-76
2022/12/06 09:03:58;;;;;;;15.60;10.65;;;;;;;2.64;100.00;153204.31;5055247;28;20103;-76
2022/12/06 09:06:24;;;;;;;14.95;10.48;;;;;;;2.63;100.00;153201.75;5041805;28;20416;-77
2022/12/06 09:08:49;;;;;;;15.55;10.23;;;;;;;2.74;100.00;153228.56;5046655;28;20043;-76
2022/12/06 09:11:16;;;;;;;12.95;9.98;;;;;;;2.71;100.00;153220.88;5033354;28;20080;-75
2022/12/06 09:13:42;;;;;;;13.48;10.30;;;;;;;2.64;100.00;153203.06;5032747;28;20762;-76
2022/12/06 09:16:20;;;;;;;15.02;9.68;;;;;;;2.66;100.00;153209.44;5050718;28;20128;-76
2022/12/06 09:18:46;;;;;;;17.55;10.93;;;;;;;2.69;100.00;153217.09;5027514;28;20048;-76
2022/12/06 09:21:19;;;;;;;17.70;11.73;;;;;;;2.66;100.00;153209.44;5032802;28;20104;-78
2022/12/06 09:23:45;;;;;;;13.52;9.85;;;;;;;2.66;100.00;153209.44;5021190;28;20058;-76
2022/12/06 09:26:11;;;;;;;18.92;11.35;;;;;;;2.63;100.00;153201.75;5045753;28;20112;-76
2022/12/06 09:28:40;;;;;;;17.73;11.40;;;;;;;2.63;100.00;153200.50;5024971;28;20094;-76
2022/12/06 09:31:08;;;;;;;17.77;12.10;;;;;;;2.63;100.00;153201.75;5026890;28;20043;-77
2022/12/06 09:33:34;;;;;;;18.23;11.65;;;;;;;2.62;100.00;153199.22;5040513;28;20028;-76
2022/12/06 09:36:05;;;;;;;15.68;11.98;;;;;;;2.68;100.00;153213.25;5031520;28;20526;-76
2022/12/06 09:38:35;;;;;;;16.60;11.27;;;;;;;2.70;100.00;153218.38;5060601;28;20032;-76
2022/12/06 09:41:16;;;;;;;19.45;12.02;;;;;;;2.64;100.00;153204.31;5044647;28;20506;-76
2022/12/06 09:44:04;;;;;;;18.77;12.38;;;;;;;2.66;100.00;153209.44;5031265;28;20090;-76
2022/12/06 09:46:47;;;;;;;21.85;13.73;;;;;;;2.66;100.00;153208.16;5053854;28;20500;-77
2022/12/06 09:49:36;;;;;;;;;;;;;;;2.66;100.00;153209.44;5035852;28;20071;-77
2022/12/06 09:52:08;;;;;;;18.77;12.75;;;;;;;2.67;100.00;153211.94;5035609;28;19917;-77
2022/12/06 09:55:07;;;;;;;24.25;13.57;;;;;;;2.63;100.00;153201.75;5028197;28;20474;-77
2022/12/06 09:57:46;;;;;;;24.92;14.13;;;;;;;2.65;100.00;153206.84;5009364;28;20569;-76
2022/12/06 10:00:20;;;;;;;24.77;15.05;;;;;;;2.68;100.00;153213.25;5035421;28;20079;-76
2022/12/06 10:03:20;;;;;;;26.45;15.38;;;;;;;2.61;100.00;153196.66;5029658;28;20032;-76
2022/12/06 10:06:02;;;;;;;26.00;15.85;;;;;;;2.59;100.00;153191.56;5053372;28;20585;-76
2022/12/06 10:08:47;;;;;;;19.27;12.60;;;;;;;2.63;100.00;153200.50;5048918;28;20052;-77
2022/12/06 10:11:23;;;;;;;20.27;12.52;;;;;;;2.65;100.00;153205.59;5045136;28;20091;-76
2022/12/06 10:14:25;;;;;;;16.00;11.82;;;;;;;2.66;100.00;153209.44;5038992;28;20034;-77
2022/12/06 10:17:11;;;;;;;18.30;12.35;;;;;;;2.70;100.00;153219.63;5049786;28;20036;-76
2022/12/06 10:19:53;;;;;;;20.85;12.10;;;;;;;2.70;100.00;153218.38;5044152;28;20037;-76
2022/12/06 10:22:40;;;;;;;17.17;11.00;;;;;;;2.64;100.00;153203.06;5037868;28;20029;-76
2022/12/06 10:25:17;;;;;;;19.92;11.35;;;;;;;2.67;100.00;153211.94;5028536;28;20045;-77
2022/12/06 10:27:50;;;;;;;17.23;11.63;;;;;;;2.70;100.00;153219.63;5051885;28;20055;-76
2022/12/06 10:30:16;;;;;;;21.90;13.20;;;;;;;2.64;100.00;153203.06;5041131;28;20037;-77
2022/12/06 10:33:02;;;;;;;20.33;12.32;;;;;;;2.68;100.00;153213.25;5039589;28;20024;-77
2022/12/06 10:35:53;;;;;;;27.20;15.38;;;;;;;2.72;100.00;153224.72;5048841;28;20066;-76
2022/12/06 10:38:26;;;;;;;27.75;15.65;;;;;;;2.70;100.00;153219.63;5027981;28;20416;-76
2022/12/06 10:40:58;;;;;;;27.52;17.10;;;;;;;2.69;100.00;153215.78;5045579;28;20751;-76
2022/12/06 10:43:49;;;;;;;33.45;16.05;;;;;;;2.75;100.00;153231.13;5041910;28;20045;-76
2022/12/06 10:49:50;;;;;;;28.02;15.52;;;;;;;2.75;100.00;153229.81;5048940;28;20040;-76
2022/12/06 10:52:40;;;;;;;25.90;14.87;;;;;;;2.77;100.00;153234.94;5058286;28;20062;-76
2022/12/06 10:55:12;;;;;;;28.83;15.70;;;;;;;2.74;100.00;153228.56;5035808;28;20286;-76
2022/12/06 10:58:00;;;;;;;22.38;14.70;;;;;;;2.74;100.00;153228.56;5050979;28;20029;-75
2022/12/06 11:00:28;;;;;;;26.23;14.98;;;;;;;2.76;100.00;153232.41;5032959;28;20045;-75
2022/12/06 11:03:14;;;;;;;24.48;14.10;;;;;;;2.73;100.00;153226.00;5043597;28;20032;-76
2022/12/06 11:06:03;;;;;;;20.63;14.07;;;;;;;2.65;100.00;153205.59;5026490;28;20040;-76
2022/12/06 11:08:35;;;;;;;23.65;15.48;;;;;;;2.63;100.00;153201.75;5025643;28;20071;-76
2022/12/06 11:11:04;;;;;;;22.52;14.00;;;;;;;2.70;100.00;153218.38;5043549;28;20089;-75
2022/12/06 11:13:39;;;;;;;22.13;15.00;;;;;;;2.74;100.00;153228.56;5050357;28;20546;-76
2022/12/06 11:16:16;;;;;;;23.67;15.35;;;;;;;2.77;100.00;153234.94;5032773;28;20045;-76
2022/12/06 11:18:44;;;;;;;27.17;16.17;;;;;;;2.73;100.00;153226.00;5026872;28;20401;-75
2022/12/06 11:21:31;;;;;;;27.60;17.23;;;;;;;2.77;100.00;153236.25;5047722;28;20086;-75
2022/12/06 11:24:02;;;;;;;29.17;16.40;;;;;;;2.78;100.00;153238.75;5054191;28;20068;-75
2022/12/06 11:26:45;;;;;;;26.17;15.65;;;;;;;2.71;100.00;153220.88;5031285;28;20037;-75
2022/12/06 11:29:13;;;;;;;24.05;14.35;;;;;;;2.60;100.00;153192.81;5054132;28;20045;-75
2022/12/06 11:31:53;;;;;;;28.35;15.90;;;;;;;2.65;100.00;153205.59;5047611;28;20065;-76
2022/12/06 11:34:30;;;;;;;25.90;15.52;;;;;;;2.66;100.00;153209.44;5052149;28;20044;-75
2022/12/06 11:36:56;;;;;;;26.38;15.50;;;;;;;2.68;100.00;153213.25;5066002;28;20032;-76
2022/12/06 11:39:22;;;;;;;26.65;15.10;;;;;;;2.68;100.00;153214.53;5029418;28;20048;-76
2022/12/06 11:41:52;;;;;;;27.15;16.60;;;;;;;2.79;100.00;153240.03;5014881;28;20036;-75
2022/12/06 11:44:21;;;;;;;26.90;14.80;;;;;;;2.73;100.00;153226.00;5023548;28;20043;-76
2022/12/06 11:46:53;;;;;;;19.80;13.82;;;;;;;2.68;100.00;153213.25;5036375;28;20032;-76
2022/12/06 11:49:30;;;;;;;18.25;12.68;;;;;;;2.69;100.00;153215.78;5038451;28;20037;-76